createdAt,value
2023-05-03T00:00:46.923Z,6.80
2023-05-03T00:03:40.403Z,6.80
2023-05-03T00:06:42.843Z,6.70
2023-05-03T00:09:25.061Z,6.70
2023-05-03T00:15:54.260Z,6.70
2023-05-03T00:18:40.783Z,6.70
2023-05-03T00:21:47.079Z,6.70
2023-05-03T00:24:30.097Z,6.60
2023-05-03T00:28:10.383Z,6.60
2023-05-03T00:30:55.569Z,6.60
2023-05-03T00:38:11.150Z,6.50
2023-05-03T00:41:03.439Z,6.50
2023-05-03T00:43:45.352Z,6.40
2023-05-03T00:46:29.773Z,6.40
2023-05-03T00:49:51.900Z,6.40
2023-05-03T00:52:29.155Z,6.50
2023-05-03T00:55:46.468Z,6.50
2023-05-03T00:59:42.261Z,6.50
2023-05-03T01:03:08.301Z,6.40
2023-05-03T01:15:18.367Z,6.40
2023-05-03T01:27:23.297Z,6.20
2023-05-03T01:29:59.393Z,6.10
2023-05-03T01:33:20.137Z,6.00
2023-05-03T01:36:31.279Z,5.90
2023-05-03T01:40:28.225Z,5.90
2023-05-03T01:43:04.619Z,5.90
2023-05-03T01:46:43.842Z,5.80
2023-05-03T02:12:41.561Z,5.70
2023-05-03T02:15:25.591Z,5.60
2023-05-03T02:25:09.991Z,5.50
2023-05-03T02:28:04.040Z,5.50
2023-05-03T02:31:14.154Z,5.40
2023-05-03T02:42:43.850Z,5.40
2023-05-03T02:46:27.910Z,5.30
2023-05-03T02:49:29.743Z,5.30
2023-05-03T02:52:36.719Z,5.30
2023-05-03T02:55:18.322Z,5.30
2023-05-03T02:57:48.606Z,5.30
2023-05-03T03:00:25.509Z,5.40
2023-05-03T03:02:58.240Z,5.30
2023-05-03T03:05:28.202Z,5.30
2023-05-03T03:07:56.882Z,5.30
2023-05-03T03:10:33.502Z,5.20
2023-05-03T03:16:37.056Z,5.10
2023-05-03T03:19:06.862Z,5.10
2023-05-03T03:22:05.704Z,5.00
2023-05-03T03:24:46.923Z,5.00
2023-05-03T03:27:30.504Z,5.00
2023-05-03T03:30:13.878Z,5.00
2023-05-03T03:32:55.151Z,4.90
2023-05-03T03:35:30.999Z,4.80
2023-05-03T03:37:58.225Z,4.80
2023-05-03T03:40:31.003Z,4.70
2023-05-03T03:43:18.166Z,4.70
2023-05-03T03:51:53.500Z,4.70
2023-05-03T03:54:55.943Z,4.70
2023-05-03T03:57:41.590Z,4.60
2023-05-03T04:00:30.201Z,4.60
2023-05-03T04:03:13.979Z,4.60
2023-05-03T04:05:44.813Z,4.60
2023-05-03T04:08:40.020Z,4.70
2023-05-03T04:11:25.472Z,4.70
2023-05-03T04:14:01.684Z,4.70
2023-05-03T04:16:30.307Z,4.60
2023-05-03T04:19:23.535Z,4.60
2023-05-03T04:22:17.752Z,4.60
2023-05-03T04:24:46.016Z,4.70
2023-05-03T04:27:14.906Z,4.70
2023-05-03T04:29:42.311Z,4.70
2023-05-03T04:32:09.868Z,4.70
2023-05-03T04:34:37.862Z,4.70
2023-05-03T04:37:06.220Z,4.70
2023-05-03T04:39:33.765Z,4.70
2023-05-03T04:42:02.286Z,4.70
2023-05-03T04:44:29.466Z,4.70
2023-05-03T04:46:57.391Z,4.70
2023-05-03T04:49:26.809Z,4.70
2023-05-03T04:51:55.172Z,4.70
2023-05-03T04:54:24.145Z,4.70
2023-05-03T04:56:51.757Z,4.80
2023-05-03T04:59:19.274Z,4.80
2023-05-03T05:01:47.453Z,4.80
2023-05-03T05:04:15.252Z,4.90
2023-05-03T05:06:47.048Z,4.90
2023-05-03T05:09:23.905Z,4.90
2023-05-03T05:11:56.113Z,5.00
2023-05-03T05:14:28.479Z,5.00
2023-05-03T05:16:56.706Z,5.00
2023-05-03T05:19:23.927Z,5.10
2023-05-03T05:21:52.423Z,5.10
2023-05-03T05:24:20.689Z,5.20
2023-05-03T05:26:47.871Z,5.30
2023-05-03T05:29:16.531Z,5.40
2023-05-03T05:31:43.964Z,5.50
2023-05-03T05:34:11.175Z,5.50
2023-05-03T05:36:38.411Z,5.60
2023-05-03T05:39:06.669Z,5.70
2023-05-03T05:41:34.000Z,5.80
2023-05-03T05:44:01.178Z,5.90
2023-05-03T05:46:30.113Z,5.90
2023-05-03T05:48:57.699Z,6.00
2023-05-03T05:51:24.978Z,6.10
2023-05-03T05:53:52.134Z,6.20
2023-05-03T05:56:20.712Z,6.30
2023-05-03T05:58:47.833Z,6.40
2023-05-03T06:01:14.904Z,6.50
2023-05-03T06:03:42.347Z,6.60
2023-05-03T06:06:09.881Z,6.60
2023-05-03T06:08:37.288Z,6.70
2023-05-03T06:11:05.426Z,6.80
2023-05-03T06:13:34.746Z,6.90
2023-05-03T06:16:02.679Z,7.00
2023-05-03T06:18:29.861Z,7.10
2023-05-03T06:20:57.397Z,7.20
2023-05-03T06:23:24.479Z,7.40
2023-05-03T06:25:53.169Z,7.50
2023-05-03T06:28:21.099Z,7.60
2023-05-03T06:30:51.981Z,7.70
2023-05-03T06:33:19.196Z,7.90
2023-05-03T06:35:49.872Z,8.00
2023-05-03T06:38:18.688Z,8.20
2023-05-03T06:40:46.618Z,8.30
2023-05-03T06:43:13.755Z,8.40
2023-05-03T06:45:56.138Z,8.60
2023-05-03T06:48:23.967Z,8.60
2023-05-03T06:50:51.158Z,8.70
2023-05-03T06:53:18.243Z,8.80
2023-05-03T06:55:46.323Z,8.90
2023-05-03T06:58:13.452Z,9.00
2023-05-03T07:00:41.200Z,9.10
2023-05-03T07:03:08.472Z,9.20
2023-05-03T07:05:35.739Z,9.20
2023-05-03T07:08:03.698Z,9.30
2023-05-03T07:10:31.756Z,9.40
2023-05-03T07:12:59.022Z,9.50
2023-05-03T07:15:26.249Z,9.50
2023-05-03T07:17:53.307Z,9.50
2023-05-03T07:20:20.513Z,9.60
2023-05-03T07:22:48.353Z,9.70
2023-05-03T07:25:17.886Z,9.80
2023-05-03T07:27:45.107Z,9.90
2023-05-03T07:30:12.442Z,10.00
2023-05-03T07:32:39.642Z,10.20
2023-05-03T07:35:07.998Z,10.30
2023-05-03T07:37:35.076Z,10.40
2023-05-03T07:40:02.247Z,10.50
2023-05-03T07:42:29.624Z,10.70
2023-05-03T07:44:56.744Z,10.70
2023-05-03T07:47:23.840Z,10.90
2023-05-03T07:49:51.407Z,11.00
2023-05-03T07:52:18.586Z,11.10
2023-05-03T07:54:48.359Z,11.20
2023-05-03T07:57:16.428Z,11.20
2023-05-03T07:59:43.832Z,11.30
2023-05-03T08:02:11.056Z,11.40
2023-05-03T08:04:38.358Z,11.50
2023-05-03T08:07:05.652Z,11.70
2023-05-03T08:09:32.736Z,11.80
2023-05-03T08:11:59.801Z,12.00
2023-05-03T08:14:27.756Z,12.10
2023-05-03T08:16:54.856Z,12.20
2023-05-03T08:19:21.887Z,12.40
2023-05-03T08:21:48.978Z,12.70
2023-05-03T08:24:16.299Z,12.90
2023-05-03T08:26:45.176Z,12.90
2023-05-03T08:29:12.236Z,13.10
2023-05-03T08:31:39.935Z,13.20
2023-05-03T08:34:08.079Z,13.40
2023-05-03T08:36:35.919Z,13.60
2023-05-03T08:39:06.598Z,13.80
2023-05-03T08:41:33.999Z,13.90
2023-05-03T08:44:02.255Z,14.00
2023-05-03T08:46:29.566Z,14.10
2023-05-03T08:48:57.259Z,14.10
2023-05-03T08:51:25.257Z,14.10
2023-05-03T08:53:52.635Z,14.10
2023-05-03T08:56:41.664Z,14.10
2023-05-03T08:59:09.435Z,14.10
2023-05-03T09:01:37.736Z,14.00
2023-05-03T09:04:05.713Z,13.80
2023-05-03T09:06:33.667Z,13.70
2023-05-03T09:09:02.180Z,13.90
2023-05-03T09:11:31.751Z,14.10
2023-05-03T09:14:18.761Z,14.30
2023-05-03T09:16:47.499Z,14.30
2023-05-03T09:19:15.973Z,14.40
2023-05-03T09:21:45.589Z,14.50
2023-05-03T09:24:22.682Z,14.50
2023-05-03T09:26:51.941Z,14.60
2023-05-03T09:29:30.653Z,14.90
2023-05-03T09:32:08.905Z,15.20
2023-05-03T09:34:37.230Z,15.50
2023-05-03T09:37:04.728Z,15.80
2023-05-03T09:39:32.488Z,16.10
2023-05-03T09:42:00.963Z,16.30
2023-05-03T09:44:54.036Z,16.60
2023-05-03T09:47:25.611Z,16.80
2023-05-03T09:49:52.891Z,17.00
2023-05-03T09:52:21.321Z,16.80
2023-05-03T09:54:50.027Z,16.40
2023-05-03T09:57:17.592Z,16.40
2023-05-03T09:59:46.306Z,16.60
2023-05-03T10:02:13.695Z,16.90
2023-05-03T10:04:47.987Z,17.10
2023-05-03T10:07:18.460Z,17.30
2023-05-03T10:09:48.191Z,17.40
2023-05-03T10:12:17.741Z,17.20
2023-05-03T10:14:47.274Z,17.00
2023-05-03T10:17:22.194Z,16.90
2023-05-03T10:20:08.036Z,16.50
2023-05-03T10:23:14.028Z,16.40
2023-05-03T10:26:13.568Z,16.70
2023-05-03T10:28:40.844Z,17.10
2023-05-03T10:31:47.722Z,17.60
2023-05-03T10:34:23.708Z,18.10
2023-05-03T10:36:55.538Z,18.60
2023-05-03T10:39:23.272Z,18.70
2023-05-03T10:42:03.224Z,18.90
2023-05-03T10:44:49.347Z,19.10
2023-05-03T10:47:17.970Z,19.40
2023-05-03T10:49:45.779Z,19.80
2023-05-03T10:52:37.886Z,19.90
2023-05-03T10:55:13.063Z,19.50
2023-05-03T10:57:42.834Z,18.90
2023-05-03T11:00:23.712Z,18.20
2023-05-03T11:03:13.316Z,17.70
2023-05-03T11:05:40.565Z,17.20
2023-05-03T11:08:19.538Z,17.00
2023-05-03T11:10:48.578Z,17.10
2023-05-03T11:13:16.329Z,17.10
2023-05-03T11:15:47.675Z,17.30
2023-05-03T11:18:15.481Z,17.60
2023-05-03T11:20:42.540Z,17.70
2023-05-03T11:23:11.695Z,17.90
2023-05-03T11:25:39.354Z,18.20
2023-05-03T11:28:08.588Z,18.00
2023-05-03T11:30:37.521Z,17.50
2023-05-03T11:33:04.771Z,17.00
2023-05-03T11:35:33.132Z,16.80
2023-05-03T11:38:00.628Z,16.60
2023-05-03T11:40:27.916Z,16.60
2023-05-03T11:42:56.231Z,16.90
2023-05-03T11:45:30.029Z,17.10
2023-05-03T11:48:22.461Z,17.10
2023-05-03T11:50:56.685Z,17.30
2023-05-03T11:53:25.230Z,17.70
2023-05-03T11:55:56.098Z,18.00
2023-05-03T11:58:28.228Z,18.30
2023-05-03T12:00:57.599Z,18.60
2023-05-03T12:03:30.740Z,18.80
2023-05-03T12:06:02.683Z,18.90
2023-05-03T12:08:34.723Z,18.80
2023-05-03T12:11:06.182Z,18.70
2023-05-03T12:13:38.682Z,18.80
2023-05-03T12:16:11.985Z,18.80
2023-05-03T12:18:48.009Z,19.00
2023-05-03T12:23:47.062Z,19.30
2023-05-03T12:26:18.649Z,19.60
2023-05-03T12:28:48.696Z,19.90
2023-05-03T12:31:17.846Z,20.20
2023-05-03T12:36:37.842Z,19.90
2023-05-03T12:39:10.026Z,20.00
2023-05-03T12:44:10.681Z,20.40
2023-05-03T12:46:39.185Z,20.70
2023-05-03T12:49:08.565Z,21.00
2023-05-03T12:51:36.664Z,21.20
2023-05-03T12:54:10.146Z,21.40
2023-05-03T12:56:40.247Z,21.50
2023-05-03T12:59:39.307Z,21.30
2023-05-03T13:06:59.896Z,21.50
2023-05-03T13:09:38.060Z,21.60
2023-05-03T13:12:15.490Z,21.80
2023-05-03T13:14:43.026Z,22.10
2023-05-03T13:17:10.422Z,22.10
2023-05-03T13:19:37.975Z,22.20
2023-05-03T13:22:05.317Z,22.30
2023-05-03T13:24:32.471Z,22.40
2023-05-03T13:26:59.736Z,22.40
2023-05-03T13:29:26.919Z,22.20
2023-05-03T13:31:54.344Z,22.20
2023-05-03T13:34:21.722Z,22.20
2023-05-03T13:36:50.227Z,22.20
2023-05-03T13:39:19.239Z,22.10
2023-05-03T13:41:48.191Z,22.10
2023-05-03T13:44:15.348Z,22.20
2023-05-03T13:46:43.612Z,22.30
2023-05-03T13:49:14.731Z,22.40
2023-05-03T13:51:43.749Z,22.50
2023-05-03T13:54:11.117Z,22.60
2023-05-03T13:56:38.336Z,22.60
2023-05-03T13:59:08.156Z,22.50
2023-05-03T14:01:36.333Z,22.50
2023-05-03T14:04:05.086Z,22.70
2023-05-03T14:06:33.650Z,22.70
2023-05-03T14:09:02.191Z,22.80
2023-05-03T14:11:30.962Z,22.80
2023-05-03T14:13:58.997Z,22.90
2023-05-03T14:16:40.278Z,23.10
2023-05-03T14:19:11.193Z,23.10
2023-05-03T14:21:38.946Z,22.90
2023-05-03T14:24:06.870Z,22.30
2023-05-03T14:26:34.430Z,22.00
2023-05-03T14:29:01.841Z,21.90
2023-05-03T14:31:29.116Z,21.90
2023-05-03T14:33:56.368Z,21.90
2023-05-03T14:36:23.491Z,22.00
2023-05-03T14:38:50.544Z,22.00
2023-05-03T14:41:17.589Z,22.00
2023-05-03T14:43:44.622Z,22.10
2023-05-03T14:46:11.729Z,22.20
2023-05-03T14:48:38.786Z,22.30
2023-05-03T14:51:06.003Z,22.40
2023-05-03T14:53:36.100Z,22.60
2023-05-03T14:56:33.715Z,22.90
2023-05-03T14:59:02.923Z,23.10
2023-05-03T15:01:30.197Z,23.00
2023-05-03T15:03:57.383Z,22.80
2023-05-03T15:06:26.619Z,22.50
2023-05-03T15:08:54.224Z,22.10
2023-05-03T15:11:23.391Z,21.70
2023-05-03T15:13:50.554Z,21.20
2023-05-03T15:16:17.892Z,21.10
2023-05-03T15:18:48.653Z,21.00
2023-05-03T15:21:18.621Z,21.00
2023-05-03T15:23:48.300Z,21.10
2023-05-03T15:26:16.182Z,21.40
2023-05-03T15:28:43.530Z,21.70
2023-05-03T15:31:14.304Z,21.80
2023-05-03T15:33:43.114Z,22.00
2023-05-03T15:36:38.562Z,22.10
2023-05-03T15:39:05.771Z,22.20
2023-05-03T15:41:37.351Z,22.30
2023-05-03T15:44:05.578Z,22.40
2023-05-03T15:46:34.087Z,22.40
2023-05-03T15:49:01.266Z,22.50
2023-05-03T15:51:29.403Z,22.50
2023-05-03T15:53:57.286Z,22.50
2023-05-03T15:56:24.627Z,22.30
2023-05-03T15:58:51.942Z,22.00
2023-05-03T16:01:19.034Z,21.50
2023-05-03T16:03:46.342Z,21.30
2023-05-03T16:06:16.708Z,21.20
2023-05-03T16:08:43.959Z,21.20
2023-05-03T16:11:11.199Z,21.30
2023-05-03T16:13:38.512Z,21.00
2023-05-03T16:16:05.881Z,20.70
2023-05-03T16:18:33.052Z,20.60
2023-05-03T16:21:01.554Z,20.20
2023-05-03T16:23:28.873Z,19.90
2023-05-03T16:25:56.735Z,19.60
2023-05-03T16:28:23.959Z,19.30
2023-05-03T16:30:51.774Z,19.00
2023-05-03T16:33:18.769Z,18.70
2023-05-03T16:35:45.939Z,18.30
2023-05-03T16:38:12.977Z,18.10
2023-05-03T16:40:40.731Z,18.10
2023-05-03T16:43:08.030Z,18.20
2023-05-03T16:45:35.127Z,18.00
2023-05-03T16:48:04.795Z,17.80
2023-05-03T16:50:33.193Z,17.60
2023-05-03T16:53:00.220Z,17.50
2023-05-03T16:55:27.236Z,17.50
2023-05-03T16:57:54.300Z,17.50
2023-05-03T17:00:21.980Z,17.60
2023-05-03T17:02:49.202Z,17.70
2023-05-03T17:05:16.436Z,17.70
2023-05-03T17:07:43.514Z,17.70
2023-05-03T17:10:16.590Z,17.70
2023-05-03T17:12:46.943Z,17.60
2023-05-03T17:15:14.001Z,17.40
2023-05-03T17:17:41.092Z,17.10
2023-05-03T17:20:10.796Z,17.00
2023-05-03T17:22:37.839Z,16.90
2023-05-03T17:25:05.886Z,16.80
2023-05-03T17:27:32.926Z,16.80
2023-05-03T17:30:00.239Z,16.80
2023-05-03T17:32:27.344Z,16.80
2023-05-03T17:34:54.428Z,16.70
2023-05-03T17:37:23.389Z,16.70
2023-05-03T17:39:50.733Z,16.60
2023-05-03T17:42:17.778Z,16.50
2023-05-03T17:44:44.798Z,16.40
2023-05-03T17:47:12.105Z,16.30
2023-05-03T17:49:39.106Z,16.20
2023-05-03T17:52:06.667Z,16.10
2023-05-03T17:54:35.198Z,16.00
2023-05-03T17:57:02.220Z,15.90
2023-05-03T17:59:29.258Z,15.70
2023-05-03T18:01:56.714Z,15.60
2023-05-03T18:04:23.896Z,15.60
2023-05-03T18:11:09.570Z,15.50
2023-05-03T18:18:02.094Z,14.90
2023-05-03T18:20:29.290Z,14.70
2023-05-03T18:22:56.964Z,14.60
2023-05-03T18:25:47.038Z,14.40
2023-05-03T18:28:16.630Z,14.30
2023-05-03T18:39:10.368Z,14.00
2023-05-03T18:42:05.378Z,13.80
2023-05-03T18:44:32.610Z,13.60
2023-05-03T18:46:59.746Z,13.50
2023-05-03T18:49:41.526Z,13.50
2023-05-03T18:56:03.143Z,13.50
2023-05-03T18:58:51.325Z,13.40
2023-05-03T19:01:18.551Z,13.40
2023-05-03T19:03:45.718Z,13.30
2023-05-03T19:06:12.797Z,13.30
2023-05-03T19:08:41.534Z,13.10
2023-05-03T19:11:13.029Z,13.10
2023-05-03T19:13:42.197Z,13.00
2023-05-03T19:16:19.589Z,13.00
2023-05-03T19:18:48.146Z,12.90
2023-05-03T19:21:20.943Z,12.90
2023-05-03T19:23:48.041Z,12.90
2023-05-03T19:26:15.133Z,12.70
2023-05-03T19:28:43.823Z,12.70
2023-05-03T19:31:10.989Z,12.60
2023-05-03T19:37:56.720Z,12.40
2023-05-03T19:40:24.982Z,12.30
2023-05-03T19:42:55.382Z,12.20
2023-05-03T19:45:24.352Z,12.10
2023-05-03T19:48:42.317Z,12.10
2023-05-03T19:51:16.856Z,12.00
2023-05-03T19:53:44.254Z,11.90
2023-05-03T19:56:13.551Z,11.80
2023-05-03T19:58:41.112Z,11.70
2023-05-03T20:01:09.096Z,11.70
2023-05-03T20:03:36.520Z,11.80
2023-05-03T20:06:03.704Z,11.90
2023-05-03T20:08:31.514Z,11.90
2023-05-03T20:14:58.226Z,11.90
2023-05-03T20:18:02.215Z,11.80
2023-05-03T20:20:30.950Z,11.90
2023-05-03T20:22:58.044Z,11.90
2023-05-03T20:25:28.077Z,11.90
2023-05-03T20:27:55.166Z,11.80
2023-05-03T20:30:22.358Z,11.60
2023-05-03T20:32:49.415Z,11.50
2023-05-03T20:35:17.152Z,11.50
2023-05-03T20:37:44.527Z,11.50
2023-05-03T20:40:12.120Z,11.50
2023-05-03T20:42:39.158Z,11.50
2023-05-03T20:45:06.760Z,11.40
2023-05-03T20:47:33.970Z,11.30
2023-05-03T20:50:02.131Z,11.20
2023-05-03T20:52:29.502Z,11.20
2023-05-03T20:54:56.487Z,11.20
2023-05-03T20:57:23.570Z,11.20
2023-05-03T20:59:54.285Z,11.10
2023-05-03T21:02:21.824Z,11.00
2023-05-03T21:04:51.707Z,11.00
2023-05-03T21:07:19.274Z,11.10
2023-05-03T21:09:46.765Z,11.10
2023-05-03T21:12:14.346Z,11.20
2023-05-03T21:14:41.959Z,11.20
2023-05-03T21:17:10.030Z,11.20
2023-05-03T21:19:37.126Z,11.30
2023-05-03T21:22:04.184Z,11.30
2023-05-03T21:24:31.291Z,11.30
2023-05-03T21:26:59.008Z,11.30
2023-05-03T21:29:26.076Z,11.30
2023-05-03T21:31:53.161Z,11.30
2023-05-03T21:34:20.206Z,11.30
2023-05-03T21:36:47.294Z,11.30
2023-05-03T21:39:14.416Z,11.30
2023-05-03T21:41:43.637Z,11.30
2023-05-03T21:44:10.765Z,11.30
2023-05-03T21:46:37.886Z,11.30
2023-05-03T21:49:05.018Z,11.20
2023-05-03T21:51:32.771Z,11.10
2023-05-03T21:53:59.817Z,11.10
2023-05-03T21:56:26.980Z,10.90
2023-05-03T21:58:54.279Z,10.90
2023-05-03T22:01:21.967Z,10.80
2023-05-03T22:03:52.783Z,10.70
2023-05-03T22:06:20.174Z,10.70
2023-05-03T22:08:47.925Z,10.60
2023-05-03T22:11:15.084Z,10.60
2023-05-03T22:13:58.709Z,10.60
2023-05-03T22:16:29.388Z,10.50
2023-05-03T22:18:56.495Z,10.50
2023-05-03T22:21:23.597Z,10.60
2023-05-03T22:23:51.388Z,10.50
2023-05-03T22:26:18.502Z,10.50
2023-05-03T22:28:45.713Z,10.50
2023-05-03T22:31:13.724Z,10.50
2023-05-03T22:33:41.482Z,10.50
2023-05-03T22:36:09.083Z,10.50
2023-05-03T22:38:36.230Z,10.50
2023-05-03T22:41:03.263Z,10.50
2023-05-03T22:47:55.807Z,10.40
2023-05-03T22:50:24.086Z,10.30
2023-05-03T22:52:51.141Z,10.30
2023-05-03T22:55:18.240Z,10.20
2023-05-03T22:57:45.253Z,10.20
2023-05-03T23:00:12.729Z,10.20
2023-05-03T23:02:39.875Z,10.10
2023-05-03T23:05:07.844Z,10.20
2023-05-03T23:07:34.875Z,10.20
2023-05-03T23:10:03.898Z,10.20
2023-05-03T23:12:31.578Z,10.10
2023-05-03T23:14:58.689Z,10.10
2023-05-03T23:17:25.914Z,10.10
2023-05-03T23:19:53.732Z,10.10
2023-05-03T23:22:20.790Z,10.10
2023-05-03T23:24:47.872Z,10.10
2023-05-03T23:27:14.963Z,10.10
2023-05-03T23:29:42.425Z,10.00
2023-05-03T23:32:10.062Z,10.00
2023-05-03T23:34:37.794Z,10.00
2023-05-03T23:37:04.866Z,9.90
2023-05-03T23:39:31.983Z,9.90
2023-05-03T23:41:59.082Z,9.80
2023-05-03T23:44:32.393Z,9.80
2023-05-03T23:47:06.692Z,9.80
2023-05-03T23:49:33.901Z,9.70
2023-05-03T23:52:01.192Z,9.70
2023-05-03T23:54:28.283Z,9.60
2023-05-03T23:56:55.625Z,9.50
2023-05-03T23:59:22.691Z,9.50
